createdAt,value
2022-10-06T00:00:46.814Z,1012.82
2022-10-06T00:01:46.824Z,1012.90
2022-10-06T00:02:46.924Z,1012.85
2022-10-06T00:03:46.784Z,1012.86
2022-10-06T00:04:46.799Z,1012.88
2022-10-06T00:05:46.795Z,1012.89
2022-10-06T00:06:46.771Z,1012.88
2022-10-06T00:07:46.791Z,1012.90
2022-10-06T00:08:46.780Z,1012.85
2022-10-06T00:09:46.775Z,1012.88
2022-10-06T00:10:46.765Z,1012.85
2022-10-06T00:11:46.768Z,1012.88
2022-10-06T00:12:46.766Z,1012.90
2022-10-06T00:13:46.758Z,1012.89
2022-10-06T00:14:46.764Z,1012.93
2022-10-06T00:15:46.790Z,1012.90
2022-10-06T00:16:46.756Z,1012.92
2022-10-06T00:17:46.769Z,1012.90
2022-10-06T00:18:46.767Z,1013.00
2022-10-06T00:19:46.750Z,1013.01
2022-10-06T00:20:46.774Z,1012.99
2022-10-06T00:21:46.800Z,1013.05
2022-10-06T00:22:46.736Z,1013.12
2022-10-06T00:23:46.744Z,1013.07
2022-10-06T00:24:46.754Z,1013.09
2022-10-06T00:25:46.747Z,1013.12
2022-10-06T00:26:46.731Z,1013.12
2022-10-06T00:27:46.728Z,1013.12
2022-10-06T00:28:46.810Z,1013.11
2022-10-06T00:29:46.730Z,1013.17
2022-10-06T00:30:46.818Z,1013.11
2022-10-06T00:31:46.721Z,1013.13
2022-10-06T00:32:46.710Z,1013.09
2022-10-06T00:33:46.713Z,1013.10
2022-10-06T00:34:46.706Z,1013.14
2022-10-06T00:35:46.722Z,1013.09
2022-10-06T00:36:46.722Z,1013.12
2022-10-06T00:37:46.722Z,1013.18
2022-10-06T00:38:46.699Z,1013.20
2022-10-06T00:39:46.712Z,1013.15
2022-10-06T00:40:46.703Z,1013.15
2022-10-06T00:41:46.712Z,1013.19
2022-10-06T00:42:46.691Z,1013.19
2022-10-06T00:43:46.691Z,1013.22
2022-10-06T00:44:46.721Z,1013.19
2022-10-06T00:45:46.687Z,1013.18
2022-10-06T00:46:46.764Z,1013.19
2022-10-06T00:47:46.700Z,1013.21
2022-10-06T00:48:46.710Z,1013.23
2022-10-06T00:49:46.688Z,1013.24
2022-10-06T00:50:46.681Z,1013.25
2022-10-06T00:51:46.684Z,1013.21
2022-10-06T00:52:46.675Z,1013.20
2022-10-06T00:53:46.672Z,1013.25
2022-10-06T00:54:46.682Z,1013.25
2022-10-06T00:55:46.676Z,1013.23
2022-10-06T00:56:46.664Z,1013.23
2022-10-06T00:57:46.668Z,1013.25
2022-10-06T00:58:46.675Z,1013.29
2022-10-06T00:59:46.655Z,1013.23
2022-10-06T01:00:46.671Z,1013.26
2022-10-06T01:01:46.724Z,1013.34
2022-10-06T01:02:46.718Z,1013.30
2022-10-06T01:03:46.654Z,1013.27
2022-10-06T01:04:46.645Z,1013.34
2022-10-06T01:05:46.644Z,1013.32
2022-10-06T01:06:46.657Z,1013.32
2022-10-06T01:07:46.643Z,1013.33
2022-10-06T01:08:46.650Z,1013.39
2022-10-06T01:09:46.649Z,1013.33
2022-10-06T01:10:46.649Z,1013.40
2022-10-06T01:11:46.639Z,1013.33
2022-10-06T01:12:46.626Z,1013.38
2022-10-06T01:13:46.625Z,1013.40
2022-10-06T01:14:46.633Z,1013.38
2022-10-06T01:15:46.665Z,1013.39
2022-10-06T01:16:46.627Z,1013.40
2022-10-06T01:17:46.621Z,1013.43
2022-10-06T01:18:46.659Z,1013.44
2022-10-06T01:19:46.620Z,1013.45
2022-10-06T01:20:46.617Z,1013.40
2022-10-06T01:21:46.618Z,1013.41
2022-10-06T01:22:46.615Z,1013.47
2022-10-06T01:23:46.609Z,1013.44
2022-10-06T01:24:46.604Z,1013.39
2022-10-06T01:25:46.620Z,1013.43
2022-10-06T01:26:46.604Z,1013.51
2022-10-06T01:27:46.601Z,1013.48
2022-10-06T01:28:46.653Z,1013.44
2022-10-06T01:29:46.594Z,1013.45
2022-10-06T01:30:46.625Z,1013.41
2022-10-06T01:31:46.607Z,1013.46
2022-10-06T01:32:46.592Z,1013.52
2022-10-06T01:33:46.602Z,1013.54
2022-10-06T01:34:46.582Z,1013.62
2022-10-06T01:35:46.585Z,1013.59
2022-10-06T01:36:46.591Z,1013.52
2022-10-06T01:37:46.582Z,1013.52
2022-10-06T01:38:46.588Z,1013.62
2022-10-06T01:39:46.584Z,1013.52
2022-10-06T01:40:46.580Z,1013.56
2022-10-06T01:41:46.574Z,1013.54
2022-10-06T01:42:46.590Z,1013.56
2022-10-06T01:43:46.578Z,1013.49
2022-10-06T01:44:46.574Z,1013.53
2022-10-06T01:45:46.572Z,1013.58
2022-10-06T01:46:46.635Z,1013.55
2022-10-06T01:47:46.561Z,1013.59
2022-10-06T01:48:46.569Z,1013.56
2022-10-06T01:49:46.562Z,1013.55
2022-10-06T01:50:46.572Z,1013.53
2022-10-06T01:51:46.557Z,1013.53
2022-10-06T01:52:46.638Z,1013.50
2022-10-06T01:53:46.550Z,1013.50
2022-10-06T01:54:46.548Z,1013.53
2022-10-06T01:55:46.555Z,1013.51
2022-10-06T01:56:46.542Z,1013.60
2022-10-06T01:57:46.594Z,1013.56
2022-10-06T01:58:46.558Z,1013.61
2022-10-06T01:59:46.542Z,1013.59
2022-10-06T02:00:46.541Z,1013.58
2022-10-06T02:01:46.686Z,1013.57
2022-10-06T02:02:46.552Z,1013.58
2022-10-06T02:03:46.532Z,1013.60
2022-10-06T02:04:46.534Z,1013.56
2022-10-06T02:05:46.545Z,1013.57
2022-10-06T02:06:46.593Z,1013.56
2022-10-06T02:07:46.531Z,1013.55
2022-10-06T02:08:46.521Z,1013.56
2022-10-06T02:09:46.525Z,1013.55
2022-10-06T02:10:46.557Z,1013.53
2022-10-06T02:11:46.528Z,1013.51
2022-10-06T02:12:46.522Z,1013.53
2022-10-06T02:13:46.509Z,1013.58
2022-10-06T02:14:46.518Z,1013.66
2022-10-06T02:15:46.572Z,1013.60
2022-10-06T02:16:46.498Z,1013.62
2022-10-06T02:17:46.509Z,1013.55
2022-10-06T02:18:46.518Z,1013.61
2022-10-06T02:19:46.502Z,1013.61
2022-10-06T02:20:46.501Z,1013.65
2022-10-06T02:21:46.496Z,1013.64
2022-10-06T02:22:46.498Z,1013.68
2022-10-06T02:23:46.504Z,1013.65
2022-10-06T02:24:46.511Z,1013.66
2022-10-06T02:25:46.487Z,1013.68
2022-10-06T02:26:46.499Z,1013.70
2022-10-06T02:27:46.487Z,1013.73
2022-10-06T02:28:46.551Z,1013.74
2022-10-06T02:29:46.476Z,1013.81
2022-10-06T02:30:46.481Z,1013.77
2022-10-06T02:31:46.472Z,1013.83
2022-10-06T02:32:46.478Z,1013.81
2022-10-06T02:33:46.485Z,1013.80
2022-10-06T02:34:46.471Z,1013.81
2022-10-06T02:35:46.491Z,1013.78
2022-10-06T02:36:46.469Z,1013.78
2022-10-06T02:37:46.478Z,1013.80
2022-10-06T02:38:46.463Z,1013.84
2022-10-06T02:39:46.458Z,1013.84
2022-10-06T02:40:46.462Z,1013.83
2022-10-06T02:41:46.450Z,1013.88
2022-10-06T02:42:46.455Z,1013.85
2022-10-06T02:43:46.457Z,1013.83
2022-10-06T02:44:46.463Z,1013.88
2022-10-06T02:45:46.453Z,1013.89
2022-10-06T02:46:46.514Z,1013.86
2022-10-06T02:47:46.456Z,1013.97
2022-10-06T02:48:46.442Z,1013.93
2022-10-06T02:49:46.441Z,1013.91
2022-10-06T02:50:46.437Z,1013.92
2022-10-06T02:51:46.437Z,1013.99
2022-10-06T02:52:46.440Z,1013.98
2022-10-06T02:53:46.430Z,1013.97
2022-10-06T02:54:46.436Z,1013.96
2022-10-06T02:55:46.440Z,1013.98
2022-10-06T02:56:46.425Z,1013.99
2022-10-06T02:57:46.416Z,1013.95
2022-10-06T02:58:46.438Z,1014.03
2022-10-06T02:59:46.440Z,1014.00
2022-10-06T03:00:46.462Z,1014.05
2022-10-06T03:01:46.595Z,1014.03
2022-10-06T03:02:46.522Z,1014.00
2022-10-06T03:03:46.411Z,1014.03
2022-10-06T03:04:46.409Z,1014.08
2022-10-06T03:05:46.420Z,1014.09
2022-10-06T03:06:46.415Z,1014.06
2022-10-06T03:07:46.404Z,1014.08
2022-10-06T03:08:46.403Z,1014.04
2022-10-06T03:09:46.404Z,1014.10
2022-10-06T03:10:46.397Z,1014.09
2022-10-06T03:11:46.409Z,1014.15
2022-10-06T03:12:46.388Z,1014.17
2022-10-06T03:13:46.439Z,1014.16
2022-10-06T03:14:46.390Z,1014.20
2022-10-06T03:15:46.438Z,1014.21
2022-10-06T03:16:46.389Z,1014.14
2022-10-06T03:17:46.390Z,1014.16
2022-10-06T03:18:46.389Z,1014.19
2022-10-06T03:19:46.375Z,1014.28
2022-10-06T03:20:47.448Z,1014.32
2022-10-06T03:21:46.385Z,1014.32
2022-10-06T03:22:46.394Z,1014.28
2022-10-06T03:23:46.403Z,1014.28
2022-10-06T03:24:46.425Z,1014.31
2022-10-06T03:25:46.378Z,1014.33
2022-10-06T03:26:46.436Z,1014.36
2022-10-06T03:27:46.362Z,1014.34
2022-10-06T03:28:46.424Z,1014.38
2022-10-06T03:29:46.364Z,1014.40
2022-10-06T03:30:46.356Z,1014.43
2022-10-06T03:31:46.444Z,1014.46
2022-10-06T03:32:46.366Z,1014.48
2022-10-06T03:33:46.348Z,1014.53
2022-10-06T03:34:46.350Z,1014.56
2022-10-06T03:35:46.387Z,1014.58
2022-10-06T03:36:46.370Z,1014.62
2022-10-06T03:37:46.349Z,1014.66
2022-10-06T03:38:46.358Z,1014.72
2022-10-06T03:39:46.334Z,1014.74
2022-10-06T03:40:46.348Z,1014.84
2022-10-06T03:41:46.340Z,1014.86
2022-10-06T03:42:46.341Z,1014.97
2022-10-06T03:43:46.340Z,1015.01
2022-10-06T03:44:46.326Z,1015.07
2022-10-06T03:45:46.336Z,1015.06
2022-10-06T03:46:46.387Z,1014.97
2022-10-06T03:47:46.317Z,1015.02
2022-10-06T03:48:46.334Z,1015.14
2022-10-06T03:49:46.345Z,1015.27
2022-10-06T03:50:46.323Z,1015.33
2022-10-06T03:51:46.321Z,1015.29
2022-10-06T03:52:46.337Z,1015.32
2022-10-06T03:53:46.311Z,1015.30
2022-10-06T03:54:46.342Z,1015.34
2022-10-06T03:55:46.336Z,1015.30
2022-10-06T03:56:46.909Z,1015.31
2022-10-06T03:57:46.359Z,1015.30
2022-10-06T03:58:46.304Z,1015.30
2022-10-06T03:59:46.310Z,1015.27
2022-10-06T04:00:46.382Z,1015.33
2022-10-06T04:01:46.424Z,1015.36
2022-10-06T04:02:46.320Z,1015.37
2022-10-06T04:03:46.358Z,1015.40
2022-10-06T04:04:46.291Z,1015.43
2022-10-06T04:05:46.319Z,1015.45
2022-10-06T04:06:46.287Z,1015.47
2022-10-06T04:07:46.288Z,1015.57
2022-10-06T04:08:46.280Z,1015.58
2022-10-06T04:09:46.276Z,1015.61
2022-10-06T04:10:46.315Z,1015.63
2022-10-06T04:11:46.290Z,1015.57
2022-10-06T04:12:46.273Z,1015.60
2022-10-06T04:13:46.269Z,1015.61
2022-10-06T04:14:46.265Z,1015.64
2022-10-06T04:15:46.268Z,1015.69
2022-10-06T04:16:46.361Z,1015.74
2022-10-06T04:17:46.270Z,1015.72
2022-10-06T04:18:46.261Z,1015.81
2022-10-06T04:19:46.755Z,1015.89
2022-10-06T04:20:46.259Z,1015.86
2022-10-06T04:21:47.398Z,1015.93
2022-10-06T04:22:46.273Z,1015.82
2022-10-06T04:23:46.248Z,1015.90
2022-10-06T04:24:46.251Z,1015.88
2022-10-06T04:25:46.248Z,1015.78
2022-10-06T04:26:46.238Z,1015.82
2022-10-06T04:27:46.249Z,1015.83
2022-10-06T04:28:46.298Z,1015.89
2022-10-06T04:29:46.245Z,1015.90
2022-10-06T04:30:46.258Z,1016.03
2022-10-06T04:31:46.367Z,1016.01
2022-10-06T04:32:46.237Z,1016.02
2022-10-06T04:33:46.246Z,1016.00
2022-10-06T04:34:46.241Z,1016.00
2022-10-06T04:35:46.225Z,1015.95
2022-10-06T04:36:46.287Z,1016.03
2022-10-06T04:37:46.226Z,1016.08
2022-10-06T04:38:46.727Z,1016.03
2022-10-06T04:39:46.222Z,1016.00
2022-10-06T04:40:46.277Z,1016.02
2022-10-06T04:41:46.217Z,1016.05
2022-10-06T04:42:46.208Z,1016.05
2022-10-06T04:43:46.215Z,1016.04
2022-10-06T04:44:46.242Z,1016.04
2022-10-06T04:45:46.263Z,1016.07
2022-10-06T04:46:47.562Z,1016.13
2022-10-06T04:47:46.206Z,1016.15
2022-10-06T04:48:46.215Z,1016.26
2022-10-06T04:49:46.199Z,1016.24
2022-10-06T04:50:47.440Z,1016.26
2022-10-06T04:51:46.251Z,1016.28
2022-10-06T04:52:46.259Z,1016.31
2022-10-06T04:53:46.190Z,1016.30
2022-10-06T04:54:46.205Z,1016.29
2022-10-06T04:55:46.206Z,1016.16
2022-10-06T04:56:46.185Z,1016.24
2022-10-06T04:57:46.193Z,1016.19
2022-10-06T04:58:46.192Z,1016.27
2022-10-06T04:59:46.178Z,1016.33
2022-10-06T05:00:46.218Z,1016.36
2022-10-06T05:01:46.275Z,1016.38
2022-10-06T05:02:46.188Z,1016.37
2022-10-06T05:03:46.194Z,1016.35
2022-10-06T05:04:46.174Z,1016.46
2022-10-06T05:05:46.164Z,1016.39
2022-10-06T05:06:46.180Z,1016.41
2022-10-06T05:07:46.169Z,1016.46
2022-10-06T05:08:46.180Z,1016.49
2022-10-06T05:09:46.171Z,1016.53
2022-10-06T05:10:46.159Z,1016.64
2022-10-06T05:11:46.178Z,1016.65
2022-10-06T05:12:46.174Z,1016.70
2022-10-06T05:13:46.927Z,1016.71
2022-10-06T05:14:47.958Z,1016.78
2022-10-06T05:15:46.151Z,1016.80
2022-10-06T05:16:46.220Z,1016.82
2022-10-06T05:17:46.171Z,1016.79
2022-10-06T05:18:46.152Z,1016.84
2022-10-06T05:19:46.163Z,1016.83
2022-10-06T05:20:46.146Z,1016.90
2022-10-06T05:21:46.164Z,1016.95
2022-10-06T05:22:47.015Z,1016.95
2022-10-06T05:23:46.141Z,1016.92
2022-10-06T05:24:46.143Z,1016.94
2022-10-06T05:25:46.134Z,1016.98
2022-10-06T05:26:46.126Z,1016.98
2022-10-06T05:27:46.138Z,1016.96
2022-10-06T05:28:46.163Z,1016.95
2022-10-06T05:29:46.147Z,1016.98
2022-10-06T05:30:46.135Z,1017.05
2022-10-06T05:31:46.141Z,1017.04
2022-10-06T05:32:46.118Z,1017.08
2022-10-06T05:33:46.147Z,1017.11
2022-10-06T05:34:46.113Z,1017.07
2022-10-06T05:35:46.983Z,1017.15
2022-10-06T05:36:46.924Z,1017.26
2022-10-06T05:37:46.123Z,1017.30
2022-10-06T05:38:46.115Z,1017.27
2022-10-06T05:39:46.122Z,1017.30
2022-10-06T05:40:46.127Z,1017.34
2022-10-06T05:41:46.119Z,1017.40
2022-10-06T05:42:46.100Z,1017.42
2022-10-06T05:43:46.096Z,1017.47
2022-10-06T05:44:46.097Z,1017.51
2022-10-06T05:45:46.140Z,1017.55
2022-10-06T05:46:46.094Z,1017.60
2022-10-06T05:47:46.096Z,1017.62
2022-10-06T05:48:46.107Z,1017.63
2022-10-06T05:49:46.102Z,1017.63
2022-10-06T05:50:46.095Z,1017.67
2022-10-06T05:51:46.940Z,1017.68
2022-10-06T05:52:46.115Z,1017.70
2022-10-06T05:53:47.929Z,1017.69
2022-10-06T05:54:46.079Z,1017.72
2022-10-06T05:55:46.077Z,1017.78
2022-10-06T05:56:46.117Z,1017.83
2022-10-06T05:57:46.068Z,1017.85
2022-10-06T05:58:46.077Z,1017.97
2022-10-06T05:59:46.076Z,1017.95
2022-10-06T06:00:46.085Z,1017.94
2022-10-06T06:01:46.089Z,1017.95
2022-10-06T06:02:46.132Z,1018.04
2022-10-06T06:03:46.080Z,1018.02
2022-10-06T06:04:46.093Z,1018.10
2022-10-06T06:05:46.270Z,1018.13
2022-10-06T06:06:46.087Z,1018.15
2022-10-06T06:07:46.059Z,1018.19
2022-10-06T06:08:46.050Z,1018.15
2022-10-06T06:09:46.048Z,1018.20
2022-10-06T06:10:46.051Z,1018.29
2022-10-06T06:11:46.051Z,1018.29
2022-10-06T06:12:46.071Z,1018.37
2022-10-06T06:13:46.038Z,1018.45
2022-10-06T06:14:46.053Z,1018.45
2022-10-06T06:15:46.033Z,1018.45
2022-10-06T06:16:46.100Z,1018.46
2022-10-06T06:17:46.034Z,1018.48
2022-10-06T06:18:46.052Z,1018.47
2022-10-06T06:19:46.046Z,1018.52
2022-10-06T06:20:46.055Z,1018.57
2022-10-06T06:21:46.025Z,1018.69
2022-10-06T06:22:46.024Z,1018.72
2022-10-06T06:23:46.034Z,1018.68
2022-10-06T06:24:46.040Z,1018.67
2022-10-06T06:25:46.053Z,1018.70
2022-10-06T06:26:46.039Z,1018.72
2022-10-06T06:27:46.947Z,1018.78
2022-10-06T06:28:46.379Z,1018.79
2022-10-06T06:29:46.010Z,1018.85
2022-10-06T06:30:46.076Z,1018.87
2022-10-06T06:31:46.158Z,1018.87
2022-10-06T06:32:46.021Z,1018.90
2022-10-06T06:33:46.023Z,1018.93
2022-10-06T06:34:46.015Z,1018.97
2022-10-06T06:35:46.033Z,1018.98
2022-10-06T06:36:46.003Z,1019.01
2022-10-06T06:37:47.947Z,1018.97
2022-10-06T06:38:46.000Z,1018.98
2022-10-06T06:39:46.039Z,1019.00
2022-10-06T06:40:46.003Z,1019.04
2022-10-06T06:41:45.998Z,1019.06
2022-10-06T06:42:49.199Z,1019.11
2022-10-06T06:43:45.992Z,1019.15
2022-10-06T06:44:45.991Z,1019.17
2022-10-06T06:45:46.017Z,1019.12
2022-10-06T06:46:45.988Z,1019.19
2022-10-06T06:47:45.987Z,1019.17
2022-10-06T06:48:45.993Z,1019.24
2022-10-06T06:49:46.004Z,1019.24
2022-10-06T06:50:46.180Z,1019.27
2022-10-06T06:51:45.977Z,1019.37
2022-10-06T06:52:45.973Z,1019.36
2022-10-06T06:53:45.963Z,1019.43
2022-10-06T06:54:45.972Z,1019.44
2022-10-06T06:55:45.958Z,1019.44
2022-10-06T06:56:45.956Z,1019.44
2022-10-06T06:57:45.956Z,1019.49
2022-10-06T06:58:45.958Z,1019.53
2022-10-06T06:59:45.962Z,1019.55
2022-10-06T07:00:45.972Z,1019.60
2022-10-06T07:01:46.148Z,1019.56
2022-10-06T07:02:45.946Z,1019.57
2022-10-06T07:03:57.261Z,1019.56
2022-10-06T07:04:45.955Z,1019.67
2022-10-06T07:05:45.990Z,1019.65
2022-10-06T07:06:45.944Z,1019.72
2022-10-06T07:07:45.946Z,1019.72
2022-10-06T07:08:45.930Z,1019.71
2022-10-06T07:09:45.971Z,1019.81
2022-10-06T07:10:45.940Z,1019.75
2022-10-06T07:11:47.979Z,1019.83
2022-10-06T07:12:45.946Z,1019.87
2022-10-06T07:13:45.945Z,1019.82
2022-10-06T07:14:45.936Z,1019.82
2022-10-06T07:15:45.979Z,1019.85
2022-10-06T07:16:45.942Z,1019.94
2022-10-06T07:17:45.921Z,1019.98
2022-10-06T07:18:45.913Z,1020.02
2022-10-06T07:19:45.922Z,1020.02
2022-10-06T07:20:45.926Z,1020.00
2022-10-06T07:21:45.921Z,1020.03
2022-10-06T07:22:45.926Z,1020.14
2022-10-06T07:23:45.917Z,1020.30
2022-10-06T07:24:45.921Z,1020.56
2022-10-06T07:25:45.919Z,1020.81
2022-10-06T07:26:45.920Z,1020.92
2022-10-06T07:27:45.940Z,1020.91
2022-10-06T07:28:45.938Z,1020.24
2022-10-06T07:29:45.917Z,1020.27
2022-10-06T07:30:45.956Z,1021.00
2022-10-06T07:31:46.027Z,1020.67
2022-10-06T07:32:45.946Z,1021.08
2022-10-06T07:33:45.919Z,1020.41
2022-10-06T07:34:45.939Z,1021.10
2022-10-06T07:35:45.964Z,1021.06
2022-10-06T07:36:45.942Z,1020.91
2022-10-06T07:37:45.946Z,1021.01
2022-10-06T07:38:45.949Z,1020.99
2022-10-06T07:39:45.965Z,1020.55
2022-10-06T07:40:50.465Z,1020.98
2022-10-06T07:41:45.970Z,1020.90
2022-10-06T07:42:45.976Z,1020.97
2022-10-06T07:43:46.000Z,1020.94
2022-10-06T07:44:45.995Z,1021.05
2022-10-06T07:45:46.038Z,1020.60
2022-10-06T07:46:46.016Z,1020.65
2022-10-06T07:47:46.974Z,1021.02
2022-10-06T07:48:46.975Z,1021.10
2022-10-06T07:49:46.038Z,1020.80
2022-10-06T07:50:46.082Z,1020.71
2022-10-06T07:51:46.076Z,1020.69
2022-10-06T07:52:46.165Z,1021.11
2022-10-06T07:53:46.092Z,1021.02
2022-10-06T07:54:46.088Z,1020.92
2022-10-06T07:55:46.111Z,1020.95
2022-10-06T07:56:46.120Z,1020.74
2022-10-06T07:57:46.137Z,1020.84
2022-10-06T07:58:46.124Z,1020.75
2022-10-06T07:59:46.134Z,1020.78
2022-10-06T08:00:46.189Z,1020.75
2022-10-06T08:01:46.273Z,1021.06
2022-10-06T08:02:46.456Z,1020.90
2022-10-06T08:03:46.178Z,1020.84
2022-10-06T08:04:46.194Z,1020.83
2022-10-06T08:05:46.195Z,1020.94
2022-10-06T08:06:46.208Z,1021.15
2022-10-06T08:07:46.257Z,1020.98
2022-10-06T08:08:50.248Z,1020.97
2022-10-06T08:09:46.220Z,1020.91
2022-10-06T08:10:46.421Z,1020.98
2022-10-06T08:11:46.231Z,1021.01
2022-10-06T08:13:46.399Z,1021.21
2022-10-06T08:14:46.259Z,1021.11
2022-10-06T08:15:46.289Z,1021.28
2022-10-06T08:16:46.267Z,1021.27
2022-10-06T08:17:46.279Z,1021.31
2022-10-06T08:18:47.212Z,1021.15
2022-10-06T08:19:46.286Z,1021.26
2022-10-06T08:20:46.295Z,1021.21
2022-10-06T08:21:46.301Z,1021.21
2022-10-06T08:22:46.309Z,1021.35
2022-10-06T08:23:48.009Z,1021.32
2022-10-06T08:25:04.820Z,1021.35
2022-10-06T08:25:46.346Z,1021.34
2022-10-06T08:26:46.385Z,1021.40
2022-10-06T08:27:50.053Z,1021.43
2022-10-06T08:28:46.368Z,1021.41
2022-10-06T08:29:46.370Z,1021.35
2022-10-06T08:30:46.386Z,1021.41
2022-10-06T08:31:46.440Z,1021.33
2022-10-06T08:32:46.406Z,1021.37
2022-10-06T08:33:46.432Z,1021.38
2022-10-06T08:34:46.452Z,1021.41
2022-10-06T08:35:47.125Z,1021.44
2022-10-06T08:37:08.658Z,1021.50
2022-10-06T08:37:46.479Z,1021.52
2022-10-06T08:38:46.462Z,1021.55
2022-10-06T08:39:46.505Z,1021.45
2022-10-06T08:40:46.486Z,1021.54
2022-10-06T08:41:46.479Z,1021.56
2022-10-06T08:42:46.549Z,1021.60
2022-10-06T08:43:46.507Z,1021.54
2022-10-06T08:44:46.530Z,1021.61
2022-10-06T08:45:46.592Z,1021.59
2022-10-06T08:46:46.641Z,1021.51
2022-10-06T08:47:46.539Z,1021.54
2022-10-06T08:48:46.609Z,1021.65
2022-10-06T08:49:46.562Z,1021.65
2022-10-06T08:50:46.551Z,1021.65
2022-10-06T08:51:46.576Z,1021.65
2022-10-06T08:52:46.560Z,1021.70
2022-10-06T08:53:46.561Z,1021.62
2022-10-06T08:54:46.573Z,1021.73
2022-10-06T08:55:46.597Z,1021.67
2022-10-06T08:56:46.581Z,1021.76
2022-10-06T08:57:46.592Z,1021.83
2022-10-06T08:58:46.576Z,1021.82
2022-10-06T08:59:46.596Z,1021.84
2022-10-06T09:00:46.607Z,1021.86
2022-10-06T09:01:46.650Z,1021.89
2022-10-06T09:02:46.671Z,1021.87
2022-10-06T09:03:46.603Z,1021.85
2022-10-06T09:04:46.616Z,1021.80
2022-10-06T09:05:46.627Z,1021.91
2022-10-06T09:06:46.609Z,1021.87
2022-10-06T09:07:46.617Z,1021.91
2022-10-06T09:08:46.630Z,1021.91
2022-10-06T09:09:46.632Z,1021.86
2022-10-06T09:10:46.617Z,1021.90
2022-10-06T09:11:46.621Z,1021.90
2022-10-06T09:12:46.645Z,1021.88
2022-10-06T09:13:46.626Z,1021.94
2022-10-06T09:14:46.641Z,1021.99
2022-10-06T09:15:46.705Z,1022.01
2022-10-06T09:16:47.524Z,1021.95
2022-10-06T09:17:46.637Z,1021.92
2022-10-06T09:19:07.315Z,1022.01
2022-10-06T09:19:46.645Z,1022.00
2022-10-06T09:20:47.144Z,1022.08
2022-10-06T09:21:46.641Z,1022.11
2022-10-06T09:22:46.664Z,1022.08
2022-10-06T09:23:46.650Z,1022.12
2022-10-06T09:24:47.662Z,1022.08
2022-10-06T09:25:47.527Z,1022.17
2022-10-06T09:26:46.659Z,1022.20
2022-10-06T09:27:46.662Z,1022.14
2022-10-06T09:28:46.641Z,1022.19
2022-10-06T09:29:46.653Z,1022.14
2022-10-06T09:30:46.652Z,1022.23
2022-10-06T09:31:46.694Z,1022.25
2022-10-06T09:32:46.638Z,1022.23
2022-10-06T09:33:46.641Z,1022.24
2022-10-06T09:34:46.659Z,1022.23
2022-10-06T09:35:46.661Z,1022.25
2022-10-06T09:36:46.651Z,1022.31
2022-10-06T09:37:46.648Z,1022.22
2022-10-06T09:38:46.653Z,1022.25
2022-10-06T09:39:46.649Z,1022.22
2022-10-06T09:40:46.672Z,1022.15
2022-10-06T09:41:46.648Z,1022.26
2022-10-06T09:42:46.653Z,1022.32
2022-10-06T09:43:48.528Z,1022.30
2022-10-06T09:44:46.661Z,1022.34
2022-10-06T09:45:46.656Z,1022.23
2022-10-06T09:46:46.656Z,1022.23
2022-10-06T09:47:46.711Z,1022.31
2022-10-06T09:48:46.661Z,1022.34
2022-10-06T09:49:46.655Z,1022.32
2022-10-06T09:50:46.674Z,1022.34
2022-10-06T09:51:46.669Z,1022.30
2022-10-06T09:52:46.655Z,1022.30
2022-10-06T09:53:46.654Z,1022.38
2022-10-06T09:54:46.661Z,1022.34
2022-10-06T09:55:46.679Z,1022.39
2022-10-06T09:56:46.674Z,1022.30
2022-10-06T09:57:46.666Z,1022.35
2022-10-06T09:58:46.667Z,1022.37
2022-10-06T09:59:46.664Z,1022.34
2022-10-06T10:00:46.694Z,1022.39
2022-10-06T10:01:46.655Z,1022.41
2022-10-06T10:02:46.681Z,1022.40
2022-10-06T10:04:02.041Z,1022.41
2022-10-06T10:04:51.371Z,1022.42
2022-10-06T10:05:46.668Z,1022.44
2022-10-06T10:06:46.660Z,1022.43
2022-10-06T10:07:46.656Z,1022.40
2022-10-06T10:08:46.666Z,1022.50
2022-10-06T10:09:46.666Z,1022.49
2022-10-06T10:10:46.677Z,1022.50
2022-10-06T10:11:46.681Z,1022.47
2022-10-06T10:12:46.669Z,1022.50
2022-10-06T10:13:46.663Z,1022.50
2022-10-06T10:14:46.666Z,1022.46
2022-10-06T10:15:46.679Z,1022.50
2022-10-06T10:16:50.935Z,1022.54
2022-10-06T10:17:46.673Z,1022.54
2022-10-06T10:18:46.669Z,1022.47
2022-10-06T10:19:46.672Z,1022.49
2022-10-06T10:20:46.655Z,1022.50
2022-10-06T10:21:46.660Z,1022.48
2022-10-06T10:22:46.672Z,1022.51
2022-10-06T10:23:46.668Z,1022.41
2022-10-06T10:24:46.658Z,1022.51
2022-10-06T10:25:46.677Z,1022.51
2022-10-06T10:26:46.682Z,1022.59
2022-10-06T10:27:46.669Z,1022.60
2022-10-06T10:28:46.709Z,1022.57
2022-10-06T10:29:46.665Z,1022.58
2022-10-06T10:30:46.755Z,1022.62
2022-10-06T10:31:46.746Z,1022.55
2022-10-06T10:32:46.661Z,1022.62
2022-10-06T10:33:54.223Z,1022.62
2022-10-06T10:34:46.698Z,1022.61
2022-10-06T10:35:47.550Z,1022.61
2022-10-06T10:36:47.213Z,1022.63
2022-10-06T10:37:46.657Z,1022.68
2022-10-06T10:38:46.663Z,1022.63
2022-10-06T10:39:46.658Z,1022.64
2022-10-06T10:40:46.692Z,1022.59
2022-10-06T10:41:46.671Z,1022.66
2022-10-06T10:42:46.670Z,1022.64
2022-10-06T10:43:46.656Z,1022.65
2022-10-06T10:44:46.679Z,1022.64
2022-10-06T10:45:46.678Z,1022.64
2022-10-06T10:46:46.741Z,1022.66
2022-10-06T10:47:46.670Z,1022.65
2022-10-06T10:48:46.725Z,1022.66
2022-10-06T10:49:46.708Z,1022.66
2022-10-06T10:50:46.665Z,1022.64
2022-10-06T10:51:46.657Z,1022.68
2022-10-06T10:52:46.676Z,1022.69
2022-10-06T10:53:46.663Z,1022.71
2022-10-06T10:54:46.653Z,1022.70
2022-10-06T10:55:46.690Z,1022.73
2022-10-06T10:56:46.667Z,1022.73
2022-10-06T10:57:46.653Z,1022.74
2022-10-06T10:58:46.664Z,1022.76
2022-10-06T10:59:46.666Z,1022.71
2022-10-06T11:00:46.700Z,1022.71
2022-10-06T11:01:46.746Z,1022.72
2022-10-06T11:02:46.677Z,1022.74
2022-10-06T11:03:46.672Z,1022.74
2022-10-06T11:04:46.658Z,1022.72
2022-10-06T11:05:46.664Z,1022.75
2022-10-06T11:06:46.666Z,1022.70
2022-10-06T11:07:46.698Z,1022.89
2022-10-06T11:08:46.683Z,1022.90
2022-10-06T11:09:46.658Z,1022.81
2022-10-06T11:10:46.683Z,1022.84
2022-10-06T11:11:51.935Z,1022.92
2022-10-06T11:12:46.654Z,1022.86
2022-10-06T11:13:46.670Z,1022.85
2022-10-06T11:14:46.658Z,1022.82
2022-10-06T11:15:46.666Z,1022.85
2022-10-06T11:16:46.673Z,1022.84
2022-10-06T11:17:46.665Z,1022.82
2022-10-06T11:18:46.653Z,1022.89
2022-10-06T11:19:46.665Z,1022.83
2022-10-06T11:20:46.656Z,1022.84
2022-10-06T11:21:46.677Z,1022.80
2022-10-06T11:22:46.680Z,1022.81
2022-10-06T11:23:46.671Z,1022.82
2022-10-06T11:24:46.708Z,1022.85
2022-10-06T11:25:46.720Z,1022.92
2022-10-06T11:26:46.652Z,1022.87
2022-10-06T11:27:46.689Z,1022.87
2022-10-06T11:28:46.672Z,1022.90
2022-10-06T11:29:46.651Z,1022.93
2022-10-06T11:30:46.697Z,1022.90
2022-10-06T11:31:48.095Z,1022.90
2022-10-06T11:32:46.661Z,1022.92
2022-10-06T11:33:46.680Z,1022.92
2022-10-06T11:34:46.662Z,1022.96
2022-10-06T11:35:46.673Z,1023.01
2022-10-06T11:36:46.659Z,1022.95
2022-10-06T11:37:46.667Z,1023.03
2022-10-06T11:38:46.718Z,1023.02
2022-10-06T11:39:46.653Z,1023.05
2022-10-06T11:40:46.694Z,1023.11
2022-10-06T11:41:46.650Z,1023.06
2022-10-06T11:42:46.658Z,1023.12
2022-10-06T11:43:46.660Z,1023.10
2022-10-06T11:44:46.656Z,1023.12
2022-10-06T11:45:46.761Z,1023.08
2022-10-06T11:46:46.742Z,1023.08
2022-10-06T11:47:46.686Z,1023.09
2022-10-06T11:48:46.665Z,1023.12
2022-10-06T11:49:46.663Z,1023.09
2022-10-06T11:50:46.648Z,1023.11
2022-10-06T11:51:46.672Z,1023.09
2022-10-06T11:52:46.726Z,1023.12
2022-10-06T11:53:46.678Z,1023.13
2022-10-06T11:54:46.644Z,1023.15
2022-10-06T11:55:46.669Z,1023.12
2022-10-06T11:56:46.668Z,1023.11
2022-10-06T11:57:46.660Z,1023.13
2022-10-06T11:58:46.661Z,1023.13
2022-10-06T11:59:46.652Z,1023.10
2022-10-06T12:00:46.666Z,1023.11
2022-10-06T12:01:46.666Z,1023.14
2022-10-06T12:02:46.772Z,1023.07
2022-10-06T12:03:46.684Z,1023.08
2022-10-06T12:04:47.577Z,1023.03
2022-10-06T12:05:56.193Z,1023.06
2022-10-06T12:06:46.667Z,1023.17